Time;durP1;ratioP1;P1;durP2;ratioP2;P2;SDS_P1;SDS_P2;PMS_P1;PMS_P2;Temp;Humidity;BMP_temperature;BMP_pressure;BME280_temperature;BME280_humidity;BME280_pressure;Samples;Min_cycle;Max_cycle;Signal;HPM_P1;HPM_P2
2021/12/31 00:00:15;;;;;;;7.15;5.28;;;14.00;99.90;;;;;;4971301;28;20114;-70
2021/12/31 00:02:41;;;;;;;7.30;5.00;;;14.30;99.90;;;;;;4970901;28;20031;-70
2021/12/31 00:05:08;;;;;;;8.35;4.85;;;14.10;99.90;;;;;;4971559;28;20026;-70
2021/12/31 00:07:34;;;;;;;6.35;4.28;;;14.10;99.90;;;;;;4971416;28;20408;-70
2021/12/31 00:10:00;;;;;;;9.77;5.25;;;14.20;99.90;;;;;;4971259;28;20109;-70
2021/12/31 00:12:27;;;;;;;6.85;4.13;;;14.00;99.90;;;;;;4971300;28;20070;-70
2021/12/31 00:14:53;;;;;;;6.32;4.28;;;14.10;99.90;;;;;;4970771;28;20457;-70
2021/12/31 00:17:18;;;;;;;10.27;4.63;;;13.90;99.90;;;;;;4971134;28;20133;-70
2021/12/31 00:19:46;;;;;;;8.70;3.63;;;14.10;99.90;;;;;;4970803;28;20683;-70
2021/12/31 00:22:40;;;;;;;8.35;4.38;;;14.10;99.90;;;;;;4971320;28;20034;-70
2021/12/31 00:25:02;;;;;;;8.82;4.05;;;14.00;99.90;;;;;;4970819;28;20023;-70
2021/12/31 00:27:27;;;;;;;7.60;3.30;;;14.10;99.90;;;;;;4970425;28;20109;-69
2021/12/31 00:29:53;;;;;;;5.65;2.90;;;14.10;99.90;;;;;;4970772;28;20584;-70
2021/12/31 00:32:18;;;;;;;8.32;4.10;;;14.20;99.90;;;;;;4971238;28;20034;-70
2021/12/31 00:34:45;;;;;;;6.55;2.83;;;14.00;99.90;;;;;;4984511;28;20459;-70
2021/12/31 00:37:11;;;;;;;8.70;3.40;;;14.20;99.90;;;;;;4970335;28;20035;-70
2021/12/31 00:39:36;;;;;;;7.57;2.85;;;14.00;99.90;;;;;;4963698;28;20029;-68
2021/12/31 00:42:03;;;;;;;5.40;2.78;;;14.40;99.90;;;;;;4969927;28;20037;-68
2021/12/31 00:44:29;;;;;;;7.68;2.55;;;;;;;;;;4970238;28;20027;-68
2021/12/31 00:46:54;;;;;;;8.95;3.63;;;14.00;99.90;;;;;;4970117;28;20372;-69
2021/12/31 00:49:19;;;;;;;7.47;2.80;;;14.10;99.90;;;;;;4970209;28;20333;-68
2021/12/31 00:51:45;;;;;;;5.38;2.63;;;;;;;;;;4969698;28;20075;-70
2021/12/31 00:54:11;;;;;;;8.13;2.75;;;14.10;99.90;;;;;;4970407;28;20118;-70
2021/12/31 00:56:36;;;;;;;7.55;2.83;;;14.40;99.90;;;;;;4969205;28;20046;-70
2021/12/31 00:59:02;;;;;;;9.23;2.97;;;14.20;99.90;;;;;;4969950;28;20406;-70
2021/12/31 01:01:30;;;;;;;7.30;2.88;;;14.10;99.90;;;;;;4969442;28;20031;-70
2021/12/31 01:03:56;;;;;;;7.07;2.92;;;13.90;99.90;;;;;;4969517;28;20499;-70
2021/12/31 01:06:22;;;;;;;4.07;2.00;;;14.10;99.90;;;;;;4970260;28;20035;-70
2021/12/31 01:08:48;;;;;;;3.85;2.10;;;14.20;99.90;;;;;;4969758;28;20473;-70
2021/12/31 01:11:13;;;;;;;5.53;2.08;;;14.20;99.90;;;;;;4969613;28;20125;-70
2021/12/31 01:13:56;;;;;;;6.20;2.55;;;14.20;99.90;;;;;;4969520;28;20081;-70
2021/12/31 01:16:25;;;;;;;5.30;2.25;;;14.20;99.90;;;;;;4969688;28;20492;-70
2021/12/31 01:21:17;;;;;;;5.40;2.45;;;14.00;99.90;;;;;;4969752;28;20031;-70
2021/12/31 01:23:43;;;;;;;7.65;2.40;;;13.90;99.90;;;;;;4968193;28;20038;-70
2021/12/31 01:26:09;;;;;;;6.88;2.28;;;14.10;99.90;;;;;;4969450;28;20042;-70
2021/12/31 01:28:36;;;;;;;4.68;2.63;;;14.10;99.90;;;;;;4969578;28;20027;-70
2021/12/31 01:31:02;;;;;;;6.50;2.25;;;13.80;99.90;;;;;;4969341;28;20030;-70
2021/12/31 01:33:27;;;;;;;2.85;2.33;;;13.90;99.90;;;;;;4969241;28;20038;-70
2021/12/31 01:35:53;;;;;;;9.15;2.30;;;13.90;99.90;;;;;;4969073;28;20035;-68
2021/12/31 01:38:19;;;;;;;4.40;2.22;;;14.00;99.90;;;;;;4969712;28;20041;-68
2021/12/31 01:40:44;;;;;;;5.53;2.85;;;14.10;99.90;;;;;;4983625;28;20472;-68
2021/12/31 01:43:13;;;;;;;4.43;2.95;;;14.00;99.90;;;;;;4969679;28;20149;-69
2021/12/31 01:45:53;;;;;;;6.95;2.35;;;14.80;99.90;;;;;;4969026;28;20828;-68
2021/12/31 01:48:23;;;;;;;6.18;3.60;;;14.30;99.90;;;;;;4969427;28;20078;-69
2021/12/31 01:50:49;;;;;;;4.50;1.63;;;13.90;99.90;;;;;;4969145;28;20109;-69
2021/12/31 01:53:16;;;;;;;6.88;2.17;;;14.30;99.90;;;;;;4969484;28;20031;-69
2021/12/31 01:55:43;;;;;;;4.80;2.13;;;14.10;99.90;;;;;;4968534;28;20102;-69
2021/12/31 01:58:09;;;;;;;4.90;2.00;;;13.90;99.90;;;;;;4969169;28;20137;-68
2021/12/31 02:00:39;;;;;;;6.20;2.22;;;14.00;99.90;;;;;;4969259;28;20027;-68
2021/12/31 02:03:05;;;;;;;5.10;2.47;;;14.10;99.90;;;;;;4969237;28;20038;-69
2021/12/31 02:05:32;;;;;;;3.47;1.83;;;14.10;99.90;;;;;;4967687;28;20037;-69
2021/12/31 02:07:58;;;;;;;3.42;1.77;;;14.00;99.90;;;;;;4969060;28;20029;-69
2021/12/31 02:10:24;;;;;;;4.60;2.05;;;14.30;99.90;;;;;;4967692;28;20066;-69
2021/12/31 02:12:50;;;;;;;4.53;1.95;;;14.20;99.90;;;;;;4968468;28;20948;-69
2021/12/31 02:15:18;;;;;;;4.85;1.70;;;13.90;99.90;;;;;;4969226;28;20050;-69
2021/12/31 02:17:47;;;;;;;3.75;1.70;;;13.90;99.90;;;;;;4968687;28;20093;-68
2021/12/31 02:20:14;;;;;;;6.18;2.03;;;14.80;99.90;;;;;;4969063;28;20515;-69
2021/12/31 02:22:50;;;;;;;4.45;1.80;;;14.20;99.90;;;;;;4968745;28;20027;-69
2021/12/31 02:25:15;;;;;;;4.10;1.92;;;14.20;99.90;;;;;;4968582;28;20090;-69
2021/12/31 02:27:41;;;;;;;4.28;2.10;;;14.30;99.90;;;;;;4968839;28;20035;-69
2021/12/31 02:30:09;;;;;;;4.35;1.42;;;14.40;99.90;;;;;;4969102;28;20054;-69
2021/12/31 02:32:35;;;;;;;3.20;2.00;;;14.30;99.90;;;;;;4969244;28;20034;-69
2021/12/31 02:35:01;;;;;;;4.35;2.25;;;14.10;99.90;;;;;;4969177;28;20118;-68
2021/12/31 02:37:28;;;;;;;5.45;1.48;;;14.00;99.90;;;;;;4968823;28;20436;-69
2021/12/31 02:39:54;;;;;;;5.35;1.75;;;14.00;99.90;;;;;;4968620;28;20030;-69
2021/12/31 02:42:20;;;;;;;6.03;2.83;;;14.40;99.90;;;;;;4968984;28;20043;-69
2021/12/31 02:44:45;;;;;;;5.20;1.75;;;14.40;99.90;;;;;;4968669;28;20106;-69
2021/12/31 02:47:11;;;;;;;4.47;1.60;;;14.50;99.90;;;;;;4969132;28;20058;-69
2021/12/31 02:49:39;;;;;;;6.60;1.52;;;14.30;99.90;;;;;;4968924;28;20022;-69
2021/12/31 02:52:08;;;;;;;7.10;2.45;;;14.20;99.90;;;;;;4968771;28;20031;-69
2021/12/31 02:54:37;;;;;;;4.00;1.67;;;14.30;99.90;;;;;;4983680;28;20477;-69
2021/12/31 02:57:05;;;;;;;8.00;2.38;;;14.20;99.90;;;;;;4969239;28;20042;-69
2021/12/31 02:59:31;;;;;;;4.78;2.03;;;14.30;99.90;;;;;;4969009;28;20102;-70
2021/12/31 03:01:57;;;;;;;3.05;1.77;;;13.90;99.90;;;;;;4967388;28;20479;-70
2021/12/31 03:04:24;;;;;;;3.80;1.63;;;14.40;99.90;;;;;;4983567;28;20112;-69
2021/12/31 03:06:52;;;;;;;7.07;1.58;;;14.20;99.90;;;;;;4968237;28;20170;-69
2021/12/31 03:09:23;;;;;;;3.45;1.48;;;14.20;99.90;;;;;;4968901;28;20050;-69
2021/12/31 03:11:54;;;;;;;2.55;1.65;;;14.20;99.90;;;;;;4968767;28;20038;-69
2021/12/31 03:14:21;;;;;;;4.93;1.52;;;14.50;99.90;;;;;;4969048;28;20019;-69
2021/12/31 03:16:48;;;;;;;6.28;1.90;;;14.20;99.90;;;;;;4968427;28;20074;-69
2021/12/31 03:19:14;;;;;;;3.75;2.00;;;14.10;99.90;;;;;;4968535;28;20168;-69
2021/12/31 03:21:40;;;;;;;6.25;2.13;;;14.00;99.90;;;;;;4970434;28;20035;-69
2021/12/31 03:24:05;;;;;;;3.05;1.38;;;14.10;99.90;;;;;;4972344;28;20042;-69
2021/12/31 03:26:31;;;;;;;4.20;1.70;;;14.00;99.90;;;;;;4972085;28;20031;-69
2021/12/31 03:28:57;;;;;;;6.13;1.77;;;14.20;99.90;;;;;;4972082;28;20038;-69
2021/12/31 03:31:23;;;;;;;4.65;1.45;;;14.20;99.90;;;;;;4972074;28;20031;-69
2021/12/31 03:33:48;;;;;;;5.85;1.67;;;14.20;99.90;;;;;;4971565;28;20384;-69
2021/12/31 03:36:14;;;;;;;3.20;1.10;;;14.60;99.90;;;;;;4971295;28;20046;-69
2021/12/31 03:38:39;;;;;;;2.53;1.10;;;14.50;99.90;;;;;;4971639;28;20075;-69
2021/12/31 03:41:05;;;;;;;7.13;2.20;;;14.00;99.90;;;;;;4972122;28;20027;-69
2021/12/31 03:43:31;;;;;;;4.57;1.63;;;14.20;99.90;;;;;;4971890;28;20420;-69
2021/12/31 03:45:56;;;;;;;3.50;1.45;;;14.30;99.90;;;;;;4971861;28;20035;-69
2021/12/31 03:48:22;;;;;;;4.28;1.70;;;14.10;99.90;;;;;;4972101;28;20106;-69
2021/12/31 03:50:48;;;;;;;4.05;1.80;;;14.10;99.90;;;;;;4970831;28;20089;-69
2021/12/31 03:53:14;;;;;;;5.22;1.75;;;14.10;99.90;;;;;;4971917;28;20464;-69
2021/12/31 03:55:40;;;;;;;6.22;2.42;;;14.10;99.90;;;;;;4971222;28;20073;-69
2021/12/31 03:58:06;;;;;;;6.00;1.90;;;14.10;99.90;;;;;;4971710;28;20408;-69
2021/12/31 04:00:31;;;;;;;4.53;1.50;;;14.10;99.90;;;;;;4971776;28;20078;-69
2021/12/31 04:02:57;;;;;;;3.20;1.63;;;14.10;99.90;;;;;;4971494;28;20030;-69
2021/12/31 04:05:25;;;;;;;7.10;2.15;;;14.10;99.90;;;;;;4970615;28;20053;-69
2021/12/31 04:07:51;;;;;;;4.68;1.92;;;14.50;99.90;;;;;;4971349;28;20027;-69
2021/12/31 04:10:17;;;;;;;5.28;2.17;;;14.10;99.90;;;;;;4971627;28;20031;-69
2021/12/31 04:12:43;;;;;;;7.63;2.28;;;14.20;99.90;;;;;;4971058;28;20097;-68
2021/12/31 04:15:09;;;;;;;5.45;2.08;;;14.80;99.90;;;;;;4971438;28;20373;-69
2021/12/31 04:17:34;;;;;;;2.63;1.63;;;14.20;99.90;;;;;;4971269;28;20107;-69
2021/12/31 04:20:00;;;;;;;4.43;1.50;;;14.00;99.90;;;;;;4970409;28;20027;-69
2021/12/31 04:22:28;;;;;;;6.43;2.38;;;14.00;99.90;;;;;;4970580;28;20035;-69
2021/12/31 04:24:54;;;;;;;5.25;1.73;;;14.50;99.90;;;;;;4971191;28;20408;-69
2021/12/31 04:27:21;;;;;;;4.53;1.80;;;13.90;99.90;;;;;;4971306;28;20023;-69
2021/12/31 04:29:51;;;;;;;3.13;1.70;;;14.30;99.90;;;;;;4970603;28;20043;-69
2021/12/31 04:32:21;;;;;;;3.63;2.25;;;14.10;99.90;;;;;;4985231;28;20400;-69
2021/12/31 04:34:47;;;;;;;4.03;1.58;;;14.10;99.90;;;;;;4970418;28;20104;-69
2021/12/31 04:37:12;;;;;;;3.45;1.60;;;13.90;99.90;;;;;;4970937;28;20491;-69
2021/12/31 04:39:38;;;;;;;4.05;1.83;;;14.10;99.90;;;;;;4970291;28;20476;-68
2021/12/31 04:42:04;;;;;;;4.95;2.45;;;14.10;99.90;;;;;;4971150;28;20031;-68
2021/12/31 04:44:29;;;;;;;7.97;2.03;;;14.20;99.90;;;;;;4970707;28;20392;-69
2021/12/31 04:46:55;;;;;;;5.57;2.10;;;14.00;99.90;;;;;;4970097;28;20026;-68
2021/12/31 04:49:20;;;;;;;5.40;1.83;;;13.90;99.90;;;;;;4970509;28;20027;-68
2021/12/31 04:51:45;;;;;;;3.00;1.77;;;13.90;99.90;;;;;;4969979;28;20030;-68
2021/12/31 04:54:15;;;;;;;3.00;1.80;;;14.00;99.90;;;;;;4970726;28;20500;-69
2021/12/31 04:56:42;;;;;;;5.03;2.28;;;;;;;;;;4970116;28;20031;-68
2021/12/31 04:59:09;;;;;;;5.20;1.80;;;13.90;99.90;;;;;;4970544;28;20096;-69
2021/12/31 05:01:35;;;;;;;5.05;2.00;;;;;;;;;;4970356;28;20507;-68
2021/12/31 05:04:00;;;;;;;4.93;2.33;;;14.00;99.90;;;;;;4969967;28;20023;-69
2021/12/31 05:06:26;;;;;;;7.05;2.05;;;14.00;99.90;;;;;;4969995;28;20484;-68
2021/12/31 05:08:51;;;;;;;5.70;1.80;;;13.90;99.90;;;;;;4969780;28;20403;-68
2021/12/31 05:11:17;;;;;;;4.38;2.35;;;14.00;99.90;;;;;;4968999;28;20031;-68
2021/12/31 05:13:42;;;;;;;4.15;1.90;;;14.20;99.90;;;;;;4969901;28;20035;-69
2021/12/31 05:16:08;;;;;;;5.72;2.35;;;14.00;99.90;;;;;;4970073;28;20043;-69
2021/12/31 05:18:33;;;;;;;6.22;2.70;;;13.80;99.90;;;;;;4969650;28;20023;-69
2021/12/31 05:20:59;;;;;;;3.05;1.60;;;14.00;99.90;;;;;;4969913;28;20035;-68
2021/12/31 05:23:25;;;;;;;4.63;1.88;;;13.80;99.90;;;;;;4969898;28;20038;-69
2021/12/31 05:25:50;;;;;;;2.65;1.77;;;13.90;99.90;;;;;;4969392;28;20037;-68
2021/12/31 05:28:16;;;;;;;3.88;2.28;;;13.90;99.90;;;;;;4969311;28;20058;-69
2021/12/31 05:30:42;;;;;;;3.50;2.35;;;13.70;99.90;;;;;;4982614;28;20054;-69
2021/12/31 05:33:07;;;;;;;6.65;2.88;;;13.90;99.90;;;;;;4969267;28;20115;-68
2021/12/31 05:35:33;;;;;;;4.63;2.60;;;13.80;99.90;;;;;;4983371;28;20077;-68
2021/12/31 05:37:58;;;;;;;8.13;3.58;;;13.80;99.90;;;;;;4968974;28;20373;-69
2021/12/31 05:40:25;;;;;;;3.72;2.10;;;13.90;99.90;;;;;;4969758;28;20041;-68
2021/12/31 05:42:50;;;;;;;4.93;2.83;;;13.90;99.90;;;;;;4969524;28;20499;-69
2021/12/31 05:45:16;;;;;;;7.32;3.17;;;13.70;99.90;;;;;;4969766;28;20026;-69
2021/12/31 05:47:42;;;;;;;9.77;2.70;;;13.70;99.90;;;;;;4968884;28;20496;-69
2021/12/31 05:50:18;;;;;;;7.20;2.40;;;13.90;99.90;;;;;;4969679;28;20030;-68
2021/12/31 05:52:44;;;;;;;4.95;2.15;;;13.80;99.90;;;;;;4969087;28;20037;-69
2021/12/31 05:55:10;;;;;;;5.93;2.80;;;13.50;99.90;;;;;;4969566;28;20038;-68
2021/12/31 05:57:36;;;;;;;9.70;3.00;;;13.80;99.90;;;;;;4969407;28;20039;-69
2021/12/31 06:00:02;;;;;;;4.13;2.70;;;13.80;99.90;;;;;;4984264;28;20030;-69
2021/12/31 06:02:27;;;;;;;6.25;2.78;;;13.80;99.90;;;;;;4968842;28;20551;-68
2021/12/31 06:04:53;;;;;;;3.65;2.63;;;14.00;99.90;;;;;;4969100;28;20039;-69
2021/12/31 06:07:18;;;;;;;3.72;2.53;;;13.70;99.90;;;;;;4969402;28;20027;-68
2021/12/31 06:09:44;;;;;;;6.28;2.35;;;13.90;99.90;;;;;;4969135;28;20364;-68
2021/12/31 06:12:09;;;;;;;6.03;2.83;;;13.80;99.90;;;;;;4969471;28;20027;-68
2021/12/31 06:14:35;;;;;;;5.80;2.83;;;13.70;99.90;;;;;;4969205;28;20078;-69
2021/12/31 06:17:06;;;;;;;7.90;2.97;;;14.00;99.90;;;;;;4968813;28;20077;-69
2021/12/31 06:19:32;;;;;;;5.90;3.08;;;13.80;99.90;;;;;;4969303;28;20027;-69
2021/12/31 06:21:58;;;;;;;6.60;2.58;;;13.80;99.90;;;;;;4968954;28;20034;-69
2021/12/31 06:24:24;;;;;;;9.27;2.50;;;13.80;99.90;;;;;;4969157;28;20027;-68
2021/12/31 06:26:49;;;;;;;5.07;2.30;;;13.70;99.90;;;;;;4969180;28;20103;-68
2021/12/31 06:29:15;;;;;;;4.97;2.30;;;13.90;99.90;;;;;;4968766;28;20055;-68
2021/12/31 06:31:40;;;;;;;7.53;2.55;;;13.50;99.90;;;;;;4982884;28;20442;-68
2021/12/31 06:34:06;;;;;;;4.15;2.30;;;13.90;99.90;;;;;;4969029;28;20549;-69
2021/12/31 06:36:31;;;;;;;2.42;1.65;;;13.70;99.90;;;;;;4968460;28;20050;-69
2021/12/31 06:39:00;;;;;;;5.85;2.65;;;13.70;99.90;;;;;;4968713;28;20027;-69
2021/12/31 06:41:26;;;;;;;6.30;2.55;;;13.70;99.90;;;;;;4968727;28;20042;-69
2021/12/31 06:43:51;;;;;;;4.57;2.53;;;13.70;99.90;;;;;;4968717;28;20043;-69
2021/12/31 06:46:19;;;;;;;3.50;2.83;;;13.60;99.90;;;;;;4967155;28;20031;-68
2021/12/31 06:48:44;;;;;;;5.80;2.47;;;13.40;99.90;;;;;;4968594;28;20019;-68
2021/12/31 06:51:10;;;;;;;3.35;2.08;;;13.40;99.90;;;;;;4968741;28;20472;-68
2021/12/31 06:53:36;;;;;;;7.40;2.88;;;13.50;99.90;;;;;;4968289;28;20038;-68
2021/12/31 06:56:02;;;;;;;6.20;2.13;;;13.40;99.90;;;;;;4970497;28;20506;-69
2021/12/31 06:58:27;;;;;;;6.00;2.00;;;13.20;99.90;;;;;;4972248;28;20089;-68
2021/12/31 07:00:53;;;;;;;6.68;2.28;;;13.00;99.90;;;;;;4972030;28;20038;-69
2021/12/31 07:03:18;;;;;;;5.68;3.03;;;13.20;99.90;;;;;;4972367;28;20081;-69
2021/12/31 07:05:44;;;;;;;6.28;2.35;;;13.00;99.90;;;;;;4971819;28;20336;-69
2021/12/31 07:08:10;;;;;;;4.47;2.45;;;13.00;99.90;;;;;;4972343;28;20098;-69
2021/12/31 07:10:36;;;;;;;6.22;2.58;;;12.90;99.90;;;;;;4971985;28;20074;-69
2021/12/31 07:13:11;;;;;;;5.97;2.55;;;12.90;99.90;;;;;;4971917;28;20037;-68
2021/12/31 07:15:47;;;;;;;3.65;2.15;;;12.90;99.90;;;;;;4971871;28;20022;-68
2021/12/31 07:18:13;;;;;;;3.85;2.60;;;12.40;99.90;;;;;;4964631;28;20043;-68
2021/12/31 07:20:39;;;;;;;4.85;2.45;;;12.80;99.90;;;;;;4965619;28;20042;-69
2021/12/31 07:23:10;;;;;;;4.78;1.90;;;12.20;99.90;;;;;;4971333;28;20038;-68
2021/12/31 07:25:35;;;;;;;4.60;3.22;;;12.90;99.90;;;;;;4968478;28;20034;-68
2021/12/31 07:28:02;;;;;;;5.15;2.45;;;12.80;99.90;;;;;;4971258;28;20429;-68
2021/12/31 07:30:28;;;;;;;4.55;2.08;;;12.60;99.90;;;;;;4971202;28;20046;-69
2021/12/31 07:32:53;;;;;;;8.02;2.90;;;12.30;99.90;;;;;;4971523;28;20027;-69
2021/12/31 07:35:20;;;;;;;7.95;3.60;;;12.70;99.90;;;;;;4971140;28;20370;-70
2021/12/31 07:37:45;;;;;;;4.28;2.88;;;12.60;99.90;;;;;;4971081;28;20520;-69
2021/12/31 07:40:12;;;;;;;6.55;2.65;;;12.60;99.90;;;;;;4970135;28;20113;-69
2021/12/31 07:42:39;;;;;;;5.00;3.03;;;12.60;99.90;;;;;;4970852;28;20108;-69
2021/12/31 07:45:06;;;;;;;4.05;2.92;;;12.60;99.90;;;;;;4972088;28;20078;-69
2021/12/31 07:47:31;;;;;;;6.50;3.00;;;12.60;99.90;;;;;;4971467;28;20496;-69
2021/12/31 07:49:57;;;;;;;4.45;2.53;;;12.60;99.90;;;;;;4971668;28;20046;-69
2021/12/31 07:52:23;;;;;;;4.80;2.38;;;;;;;;;;4971277;28;20035;-69
2021/12/31 07:54:48;;;;;;;7.70;2.83;;;12.70;99.90;;;;;;4971186;28;20022;-70
2021/12/31 07:57:14;;;;;;;4.50;2.97;;;12.50;99.90;;;;;;4970951;28;20049;-68
2021/12/31 07:59:39;;;;;;;4.25;2.65;;;12.70;99.90;;;;;;4969652;28;20110;-69
2021/12/31 08:02:07;;;;;;;4.22;2.33;;;12.60;99.90;;;;;;4970422;28;20091;-70
2021/12/31 08:04:33;;;;;;;6.32;2.67;;;12.70;99.90;;;;;;4970133;28;20034;-69
2021/12/31 08:06:59;;;;;;;4.38;2.40;;;12.70;99.90;;;;;;4968080;28;20026;-69
2021/12/31 08:09:24;;;;;;;10.05;3.22;;;12.50;99.90;;;;;;4969918;28;20093;-69
2021/12/31 08:11:50;;;;;;;6.47;2.50;;;12.50;99.90;;;;;;4969221;28;20023;-69
2021/12/31 08:14:15;;;;;;;6.60;2.60;;;12.50;99.90;;;;;;4969653;28;20393;-69
2021/12/31 08:16:41;;;;;;;3.67;2.38;;;;;;;;;;4968868;28;20035;-69
2021/12/31 08:19:08;;;;;;;4.97;2.67;;;12.50;99.90;;;;;;4969532;28;20034;-69
2021/12/31 08:21:34;;;;;;;5.32;2.80;;;12.40;99.90;;;;;;4969419;28;20066;-69
2021/12/31 08:23:59;;;;;;;5.53;2.50;;;12.50;99.90;;;;;;4969495;28;20062;-69
2021/12/31 08:26:25;;;;;;;5.38;2.95;;;12.90;99.90;;;;;;4969139;28;20035;-68
2021/12/31 08:28:50;;;;;;;4.95;2.65;;;12.50;99.90;;;;;;4969296;28;20057;-68
2021/12/31 08:31:16;;;;;;;6.93;2.75;;;;;;;;;;4969151;28;20035;-68
2021/12/31 08:33:42;;;;;;;5.13;2.53;;;12.60;99.90;;;;;;4968781;28;20879;-68
2021/12/31 08:36:07;;;;;;;4.07;2.33;;;12.70;99.90;;;;;;4966898;28;20492;-69
2021/12/31 08:38:33;;;;;;;4.05;2.65;;;;;;;;;;4968433;28;20034;-69
2021/12/31 08:41:01;;;;;;;5.47;2.88;;;12.60;99.90;;;;;;4967929;28;20381;-69
2021/12/31 08:43:27;;;;;;;6.88;2.85;;;12.50;99.90;;;;;;4968713;28;20424;-69
2021/12/31 08:45:52;;;;;;;4.28;2.88;;;12.70;99.90;;;;;;4968869;28;20030;-69
2021/12/31 08:48:18;;;;;;;3.60;2.38;;;12.80;99.90;;;;;;4968654;28;20031;-69
2021/12/31 08:50:44;;;;;;;4.85;3.10;;;;;;;;;;4968320;28;20089;-69
2021/12/31 08:53:10;;;;;;;5.47;2.45;;;12.70;99.90;;;;;;4968040;28;20081;-68
2021/12/31 08:55:36;;;;;;;8.18;2.97;;;;;;;;;;4968268;28;20031;-68
2021/12/31 08:58:02;;;;;;;4.20;2.70;;;12.50;99.90;;;;;;4966862;28;20023;-69
2021/12/31 09:00:27;;;;;;;5.22;2.13;;;12.70;99.90;;;;;;4969117;28;20094;-69
2021/12/31 09:02:53;;;;;;;3.72;2.33;;;12.80;99.90;;;;;;4969156;28;20085;-68
2021/12/31 09:05:19;;;;;;;3.30;2.40;;;;;;;;;;4966589;28;20101;-69
2021/12/31 09:07:44;;;;;;;5.82;2.17;;;12.70;99.90;;;;;;4967097;28;20029;-69
2021/12/31 09:10:11;;;;;;;7.45;2.28;;;12.70;99.90;;;;;;4966552;28;20045;-69
2021/12/31 09:12:37;;;;;;;3.47;2.53;;;12.60;99.90;;;;;;4968507;28;20408;-69
2021/12/31 09:15:04;;;;;;;4.57;2.28;;;12.90;99.90;;;;;;4969264;28;20045;-69
2021/12/31 09:17:30;;;;;;;6.07;2.63;;;12.90;99.90;;;;;;4969190;28;20493;-69
2021/12/31 09:19:56;;;;;;;4.15;2.10;;;12.80;99.90;;;;;;4968590;28;20051;-69
2021/12/31 09:22:21;;;;;;;5.78;2.30;;;12.80;99.90;;;;;;4969892;28;20758;-69
2021/12/31 09:24:48;;;;;;;3.75;2.47;;;12.90;99.90;;;;;;4968392;28;20078;-68
2021/12/31 09:27:14;;;;;;;2.53;2.25;;;12.90;99.90;;;;;;4969269;28;20062;-69
2021/12/31 09:29:39;;;;;;;5.90;2.50;;;12.80;99.90;;;;;;4969410;28;20090;-69
2021/12/31 09:32:06;;;;;;;3.00;2.00;;;12.90;99.90;;;;;;4968790;28;20896;-68
2021/12/31 09:34:32;;;;;;;4.50;2.53;;;;;;;;;;4969417;28;20392;-68
2021/12/31 09:36:57;;;;;;;8.27;3.10;;;12.60;99.90;;;;;;4969135;28;20069;-68
2021/12/31 09:39:23;;;;;;;8.27;2.53;;;;;;;;;;4968516;28;20473;-68
2021/12/31 09:41:49;;;;;;;6.15;2.58;;;12.80;99.90;;;;;;4969215;28;20037;-68
2021/12/31 09:44:15;;;;;;;3.78;2.70;;;13.00;99.90;;;;;;4969197;28;20033;-68
2021/12/31 09:46:41;;;;;;;4.28;2.15;;;12.80;99.90;;;;;;4968594;28;20546;-68
2021/12/31 09:49:07;;;;;;;4.95;2.67;;;13.10;99.90;;;;;;4969232;28;20023;-68
2021/12/31 09:51:33;;;;;;;4.93;2.45;;;13.00;99.90;;;;;;4969021;28;20031;-68
2021/12/31 09:54:00;;;;;;;5.43;2.80;;;;;;;;;;4968763;28;20046;-68
2021/12/31 09:56:27;;;;;;;5.18;2.58;;;13.10;99.90;;;;;;4968315;28;20178;-67
2021/12/31 09:58:53;;;;;;;4.22;2.08;;;;;;;;;;4967600;28;20900;-68
2021/12/31 10:01:19;;;;;;;4.97;2.28;;;13.20;99.90;;;;;;4969172;28;20250;-68
2021/12/31 10:04:00;;;;;;;2.38;1.80;;;13.30;99.90;;;;;;4968249;28;20035;-68
2021/12/31 10:06:26;;;;;;;2.78;1.95;;;13.20;99.90;;;;;;4968693;28;20480;-68
2021/12/31 10:08:53;;;;;;;3.15;2.33;;;13.40;99.90;;;;;;4967860;28;20170;-68
2021/12/31 10:11:21;;;;;;;4.93;2.17;;;13.50;99.90;;;;;;4969025;28;20129;-70
2021/12/31 10:13:53;;;;;;;5.05;2.28;;;13.10;99.90;;;;;;4968749;28;20039;-71
2021/12/31 10:16:19;;;;;;;4.00;2.03;;;13.30;99.90;;;;;;4968872;28;20045;-71
2021/12/31 10:18:44;;;;;;;3.72;2.10;;;13.30;99.90;;;;;;4967444;28;20030;-70
2021/12/31 10:21:10;;;;;;;4.05;2.80;;;13.40;99.90;;;;;;4968918;28;20030;-70
2021/12/31 10:23:39;;;;;;;6.30;3.33;;;13.30;99.90;;;;;;4968272;28;20035;-71
2021/12/31 10:26:07;;;;;;;4.50;2.72;;;13.10;99.90;;;;;;4968866;28;20069;-68
2021/12/31 10:28:32;;;;;;;3.13;2.22;;;13.10;99.90;;;;;;4968540;28;20396;-68
2021/12/31 10:31:11;;;;;;;4.00;2.40;;;13.10;99.90;;;;;;4969934;28;20051;-69
2021/12/31 10:33:45;;;;;;;2.88;2.40;;;13.00;99.90;;;;;;4967964;28;20044;-69
2021/12/31 10:36:31;;;;;;;3.83;2.00;;;13.10;99.90;;;;;;4981694;28;20031;-69
2021/12/31 10:38:59;;;;;;;3.88;2.83;;;13.20;99.90;;;;;;4971691;28;20369;-69
2021/12/31 10:41:24;;;;;;;4.15;1.77;;;13.40;99.90;;;;;;4972612;28;20023;-69
2021/12/31 10:43:59;;;;;;;7.75;3.72;;;13.20;99.90;;;;;;4972215;28;20480;-70
2021/12/31 10:46:25;;;;;;;41.20;19.63;;;13.20;99.90;;;;;;4972519;28;20050;-70
2021/12/31 10:48:54;;;;;;;25.73;17.10;;;13.40;99.90;;;;;;4971863;28;20098;-69
2021/12/31 10:51:44;;;;;;;9.75;5.32;;;13.20;99.90;;;;;;4971759;28;20034;-70
2021/12/31 10:54:38;;;;;;;3.50;2.55;;;13.50;99.90;;;;;;4971795;28;20112;-70
2021/12/31 10:57:04;;;;;;;4.72;2.72;;;13.50;99.90;;;;;;4971284;28;20039;-69
2021/12/31 10:59:36;;;;;;;5.30;2.05;;;13.30;99.90;;;;;;4971664;28;20031;-69
2021/12/31 11:02:04;;;;;;;6.03;2.38;;;13.50;99.90;;;;;;4969387;28;20030;-69
2021/12/31 11:04:31;;;;;;;5.88;3.53;;;13.50;99.90;;;;;;4987047;28;20031;-69
2021/12/31 11:06:59;;;;;;;4.30;3.50;;;13.50;99.90;;;;;;4968601;28;20405;-69
2021/12/31 11:09:26;;;;;;;5.22;2.67;;;13.30;99.90;;;;;;4971438;28;20031;-69
2021/12/31 11:11:53;;;;;;;8.15;4.85;;;13.30;99.90;;;;;;4971543;28;20049;-70
2021/12/31 11:14:18;;;;;;;4.85;2.70;;;13.30;99.90;;;;;;4971850;28;20499;-69
2021/12/31 11:16:44;;;;;;;3.40;2.45;;;13.30;99.90;;;;;;4970383;28;20034;-69
2021/12/31 11:19:11;;;;;;;4.35;2.33;;;13.30;99.90;;;;;;4970584;28;20034;-70
2021/12/31 11:21:38;;;;;;;4.43;2.53;;;13.40;99.90;;;;;;4970561;28;20476;-70
2021/12/31 11:24:30;;;;;;;6.20;2.20;;;13.50;99.90;;;;;;4970492;28;20034;-69
2021/12/31 11:26:56;;;;;;;4.25;2.00;;;13.50;99.90;;;;;;4971124;28;20580;-70
2021/12/31 11:29:22;;;;;;;3.63;2.33;;;;;;;;;;4970579;28;20181;-70
2021/12/31 11:31:47;;;;;;;3.10;1.95;;;13.60;99.90;;;;;;4971188;28;20023;-70
2021/12/31 11:34:14;;;;;;;4.18;1.88;;;13.90;99.90;;;;;;4971167;28;20034;-69
2021/12/31 11:36:44;;;;;;;4.47;2.45;;;14.00;99.90;;;;;;4971546;28;20162;-70
2021/12/31 11:39:15;;;;;;;3.00;1.73;;;13.70;99.90;;;;;;4971892;28;20100;-68
2021/12/31 11:41:41;;;;;;;5.00;2.42;;;14.00;99.90;;;;;;4970996;28;20042;-69
2021/12/31 11:44:09;;;;;;;3.63;2.33;;;13.70;99.90;;;;;;4971528;28;20027;-68
2021/12/31 11:46:43;;;;;;;2.58;1.75;;;13.80;99.90;;;;;;4969068;28;20182;-68
2021/12/31 11:49:23;;;;;;;3.97;2.10;;;13.70;99.90;;;;;;4970846;28;20026;-68
2021/12/31 11:52:08;;;;;;;4.40;1.88;;;13.80;99.90;;;;;;4964953;28;20046;-69
2021/12/31 11:54:38;;;;;;;9.00;3.45;;;13.80;99.90;;;;;;4971133;28;20027;-68
2021/12/31 11:57:18;;;;;;;5.90;2.97;;;13.50;99.90;;;;;;4971182;28;20388;-68
2021/12/31 11:59:47;;;;;;;5.70;3.33;;;13.60;99.90;;;;;;4971033;28;20333;-68
2021/12/31 12:02:16;;;;;;;4.60;3.03;;;13.90;99.90;;;;;;4971084;28;20027;-68
2021/12/31 12:05:02;;;;;;;3.58;2.20;;;13.70;99.90;;;;;;4970087;28;20030;-68
2021/12/31 12:08:20;;;;;;;7.20;2.92;;;14.10;99.90;;;;;;4967996;28;20027;-69
2021/12/31 12:10:46;;;;;;;4.30;2.55;;;13.70;99.90;;;;;;4960840;28;20078;-69
2021/12/31 12:13:25;;;;;;;5.60;4.57;;;14.10;99.90;;;;;;4971186;28;20061;-68
2021/12/31 12:15:51;;;;;;;4.47;3.63;;;13.90;99.90;;;;;;4985679;28;20077;-68
2021/12/31 12:18:50;;;;;;;5.18;3.25;;;13.80;99.90;;;;;;4969114;28;20066;-68
2021/12/31 12:21:32;;;;;;;5.85;3.22;;;13.80;99.90;;;;;;4969834;28;20101;-68
2021/12/31 12:23:58;;;;;;;5.55;2.83;;;13.80;99.90;;;;;;4962587;28;20038;-68
2021/12/31 12:26:24;;;;;;;7.13;3.15;;;14.00;99.90;;;;;;4967069;28;20027;-68
2021/12/31 12:28:49;;;;;;;5.63;3.08;;;14.00;99.90;;;;;;4969005;28;20396;-69
2021/12/31 12:31:20;;;;;;;6.82;3.67;;;14.10;99.90;;;;;;4969656;28;20109;-69
2021/12/31 12:33:56;;;;;;;6.82;3.28;;;13.80;99.90;;;;;;4967594;28;20424;-68
2021/12/31 12:36:25;;;;;;;7.45;3.17;;;13.90;99.90;;;;;;4967312;28;20878;-68
2021/12/31 12:39:00;;;;;;;10.40;5.75;;;14.30;99.90;;;;;;4969542;28;20031;-69
2021/12/31 12:41:25;;;;;;;7.32;4.57;;;14.30;99.90;;;;;;4969851;28;20022;-69
2021/12/31 12:43:51;;;;;;;9.90;6.10;;;14.00;99.90;;;;;;4969516;28;20424;-69
2021/12/31 12:46:18;;;;;;;7.10;4.53;;;14.20;99.90;;;;;;4969495;28;20027;-69
2021/12/31 12:48:54;;;;;;;7.43;4.22;;;14.20;99.90;;;;;;4982824;28;20034;-69
2021/12/31 12:51:31;;;;;;;7.28;3.63;;;14.10;99.90;;;;;;4968669;28;20802;-69
2021/12/31 12:53:58;;;;;;;5.85;4.20;;;14.20;99.90;;;;;;4967534;28;20023;-69
2021/12/31 12:56:24;;;;;;;5.90;3.55;;;14.00;99.90;;;;;;4969110;28;20031;-69